createdAt,value
2023-05-05T00:00:59.549Z,75.05
2023-05-05T00:03:26.509Z,75.11
2023-05-05T00:05:54.486Z,75.60
2023-05-05T00:08:21.803Z,76.79
2023-05-05T00:10:48.626Z,77.61
2023-05-05T00:13:15.199Z,76.58
2023-05-05T00:15:42.564Z,77.54
2023-05-05T00:18:09.566Z,78.10
2023-05-05T00:20:36.300Z,75.84
2023-05-05T00:23:03.310Z,75.60
2023-05-05T00:25:29.823Z,75.23
2023-05-05T00:27:56.329Z,75.58
2023-05-05T00:30:23.405Z,76.07
2023-05-05T00:32:50.786Z,78.77
2023-05-05T00:35:17.680Z,79.88
2023-05-05T00:37:44.373Z,81.04
2023-05-05T00:40:11.291Z,81.62
2023-05-05T00:42:41.292Z,80.86
2023-05-05T00:45:09.421Z,82.13
2023-05-05T00:47:36.096Z,81.60
2023-05-05T00:50:04.062Z,82.01
2023-05-05T00:52:31.319Z,82.76
2023-05-05T00:54:58.162Z,81.71
2023-05-05T00:57:25.366Z,80.41
2023-05-05T00:59:53.007Z,80.43
2023-05-05T01:02:19.566Z,80.62
2023-05-05T01:04:46.121Z,81.07
2023-05-05T01:07:12.589Z,81.49
2023-05-05T01:09:46.214Z,81.97
2023-05-05T01:12:12.827Z,83.10
2023-05-05T01:14:40.843Z,84.06
2023-05-05T01:17:09.449Z,84.25
2023-05-05T01:19:41.956Z,84.69
2023-05-05T01:22:11.951Z,84.38
2023-05-05T01:24:58.105Z,84.75
2023-05-05T01:27:27.764Z,85.29
2023-05-05T01:30:00.933Z,85.11
2023-05-05T01:32:29.896Z,83.43
2023-05-05T01:35:00.680Z,84.21
2023-05-05T01:37:39.789Z,83.80
2023-05-05T01:40:08.354Z,81.04
2023-05-05T01:42:36.301Z,82.40
2023-05-05T01:45:06.588Z,83.22
2023-05-05T01:47:33.462Z,85.02
2023-05-05T01:50:01.720Z,83.61
2023-05-05T01:52:29.555Z,83.06
2023-05-05T01:54:57.280Z,83.26
2023-05-05T01:57:25.328Z,83.75
2023-05-05T01:59:53.366Z,82.07
2023-05-05T02:02:21.528Z,83.26
2023-05-05T02:04:49.303Z,84.75
2023-05-05T02:07:16.813Z,85.69
2023-05-05T02:09:44.249Z,85.99
2023-05-05T02:12:11.149Z,85.87
2023-05-05T02:14:38.522Z,86.59
2023-05-05T02:17:05.130Z,86.94
2023-05-05T02:19:38.240Z,86.11
2023-05-05T02:22:04.888Z,85.87
2023-05-05T02:24:31.582Z,86.05
2023-05-05T02:26:59.745Z,86.93
2023-05-05T02:29:32.809Z,88.81
2023-05-05T02:32:08.610Z,87.74
2023-05-05T02:34:36.757Z,88.89
2023-05-05T02:37:07.134Z,89.04
2023-05-05T02:39:38.576Z,89.59
2023-05-05T02:42:13.026Z,90.12
2023-05-05T02:44:41.376Z,88.62
2023-05-05T02:47:09.098Z,90.42
2023-05-05T02:49:36.714Z,88.52
2023-05-05T02:52:03.482Z,87.59
2023-05-05T02:54:34.065Z,87.80
2023-05-05T02:57:04.078Z,87.22
2023-05-05T02:59:41.918Z,87.14
2023-05-05T03:02:15.915Z,86.30
2023-05-05T03:04:45.821Z,87.17
2023-05-05T03:07:15.886Z,87.46
2023-05-05T03:09:55.804Z,88.17
2023-05-05T03:12:27.827Z,86.98
2023-05-05T03:15:04.116Z,86.64
2023-05-05T03:17:32.626Z,85.17
2023-05-05T03:20:03.434Z,85.86
2023-05-05T03:22:35.754Z,86.15
2023-05-05T03:25:02.563Z,86.10
2023-05-05T03:27:29.147Z,86.38
2023-05-05T03:29:55.818Z,86.02
2023-05-05T03:32:24.214Z,85.84
2023-05-05T03:34:53.929Z,86.75
2023-05-05T03:37:25.856Z,85.58
2023-05-05T03:39:52.950Z,85.61
2023-05-05T03:42:20.926Z,83.83
2023-05-05T03:44:47.472Z,83.74
2023-05-05T03:47:14.248Z,83.79
2023-05-05T03:49:41.035Z,82.76
2023-05-05T03:52:08.400Z,83.00
2023-05-05T03:54:35.306Z,81.78
2023-05-05T03:57:02.471Z,80.50
2023-05-05T03:59:29.002Z,78.75
2023-05-05T04:01:56.116Z,74.83
2023-05-05T04:04:22.737Z,72.74
2023-05-05T04:06:49.293Z,71.18
2023-05-05T04:09:16.019Z,70.29
2023-05-05T04:11:43.292Z,66.58
2023-05-05T04:14:10.526Z,63.09
2023-05-05T04:16:37.865Z,60.34
2023-05-05T04:19:04.442Z,58.46
2023-05-05T04:21:32.558Z,55.35
2023-05-05T04:23:59.216Z,51.26
2023-05-05T04:26:26.049Z,49.01
2023-05-05T04:28:52.669Z,47.41
2023-05-05T04:31:19.846Z,45.42
2023-05-05T04:33:46.968Z,45.20
2023-05-05T04:36:13.983Z,45.54
2023-05-05T04:38:41.126Z,43.20
2023-05-05T04:41:07.687Z,41.45
2023-05-05T04:43:36.359Z,41.13
2023-05-05T04:46:03.015Z,44.14
2023-05-05T04:48:32.619Z,44.79
2023-05-05T04:51:04.580Z,41.68
2023-05-05T04:53:31.514Z,39.47
2023-05-05T04:56:00.530Z,41.13
2023-05-05T04:58:27.537Z,39.26
2023-05-05T05:00:54.900Z,41.08
2023-05-05T05:03:21.540Z,39.92
2023-05-05T05:05:48.194Z,39.01
2023-05-05T05:08:18.156Z,37.84
2023-05-05T05:10:45.085Z,39.60
2023-05-05T05:13:12.973Z,39.52
2023-05-05T05:15:39.796Z,40.45
2023-05-05T05:18:06.512Z,41.15
2023-05-05T05:20:33.220Z,40.66
2023-05-05T05:23:02.128Z,41.61
2023-05-05T05:25:30.441Z,42.64
2023-05-05T05:28:08.890Z,42.63
2023-05-05T05:30:39.035Z,40.11
2023-05-05T05:33:07.304Z,41.69
2023-05-05T05:35:34.298Z,43.62
2023-05-05T05:38:01.261Z,43.22
2023-05-05T05:40:27.964Z,40.39
2023-05-05T05:42:55.137Z,37.45
2023-05-05T05:45:23.356Z,38.94
2023-05-05T05:47:50.054Z,37.58
2023-05-05T05:50:16.817Z,36.65
2023-05-05T05:52:43.667Z,40.47
2023-05-05T05:55:10.439Z,38.78
2023-05-05T05:57:38.560Z,39.85
2023-05-05T06:00:07.113Z,36.78
2023-05-05T06:02:38.451Z,38.73
2023-05-05T06:05:07.474Z,34.98
2023-05-05T06:07:34.073Z,35.41
2023-05-05T06:10:10.830Z,32.21
2023-05-05T06:12:46.837Z,36.46
2023-05-05T06:15:13.459Z,36.17
2023-05-05T06:17:40.122Z,34.21
2023-05-05T06:20:07.254Z,31.89
2023-05-05T06:22:33.908Z,32.05
2023-05-05T06:25:00.634Z,32.97
2023-05-05T06:27:27.744Z,33.73
2023-05-05T06:29:54.323Z,34.77
2023-05-05T06:32:20.790Z,36.03
2023-05-05T06:34:48.264Z,32.13
2023-05-05T06:37:14.825Z,31.23
2023-05-05T06:39:41.775Z,31.79
2023-05-05T06:42:08.307Z,34.00
2023-05-05T06:44:36.432Z,36.49
2023-05-05T06:47:03.821Z,36.70
2023-05-05T06:49:30.355Z,36.62
2023-05-05T06:51:57.035Z,35.64
2023-05-05T06:54:23.616Z,36.63
2023-05-05T06:56:50.115Z,37.75
2023-05-05T06:59:16.654Z,39.47
2023-05-05T07:01:43.143Z,39.97
2023-05-05T07:04:09.777Z,40.05
2023-05-05T07:06:36.282Z,43.45
2023-05-05T07:09:04.380Z,42.14
2023-05-05T07:11:30.868Z,43.35
2023-05-05T07:13:57.395Z,43.16
2023-05-05T07:16:24.569Z,39.97
2023-05-05T07:18:51.063Z,40.39
2023-05-05T07:21:17.522Z,39.44
2023-05-05T07:23:46.208Z,39.55
2023-05-05T07:26:12.994Z,38.07
2023-05-05T07:28:39.454Z,40.34
2023-05-05T07:31:05.960Z,39.96
2023-05-05T07:33:32.428Z,40.57
2023-05-05T07:35:58.909Z,38.00
2023-05-05T07:38:25.756Z,39.39
2023-05-05T07:40:52.218Z,39.58
2023-05-05T07:43:18.852Z,40.71
2023-05-05T07:45:45.634Z,37.59
2023-05-05T07:48:12.202Z,38.60
2023-05-05T07:50:38.690Z,39.21
2023-05-05T07:53:13.585Z,36.38
2023-05-05T07:55:41.422Z,36.03
2023-05-05T07:58:08.566Z,37.62
2023-05-05T08:00:35.616Z,36.91
2023-05-05T08:03:02.307Z,37.09
2023-05-05T08:05:28.896Z,39.74
2023-05-05T08:07:55.365Z,38.44
2023-05-05T08:10:24.579Z,42.03
2023-05-05T08:12:51.498Z,41.42
2023-05-05T08:15:18.196Z,41.50
2023-05-05T08:17:45.236Z,43.25
2023-05-05T08:20:11.947Z,43.18
2023-05-05T08:22:38.402Z,43.06
2023-05-05T08:25:05.171Z,42.25
2023-05-05T08:27:35.216Z,44.44
2023-05-05T08:30:02.909Z,43.01
2023-05-05T08:32:29.918Z,41.93
2023-05-05T08:34:56.665Z,41.64
2023-05-05T08:37:23.315Z,40.65
2023-05-05T08:39:49.765Z,42.17
2023-05-05T08:42:29.040Z,40.96
2023-05-05T08:44:59.787Z,43.10
2023-05-05T08:47:26.524Z,43.54
2023-05-05T08:49:53.907Z,41.24
2023-05-05T08:52:22.944Z,40.66
2023-05-05T08:54:57.773Z,43.56
2023-05-05T08:57:40.809Z,43.15
2023-05-05T09:00:08.493Z,42.32
2023-05-05T09:02:35.587Z,43.97
2023-05-05T09:05:05.308Z,42.70
2023-05-05T09:07:32.706Z,41.02
2023-05-05T09:10:00.363Z,41.64
2023-05-05T09:12:30.390Z,43.60
2023-05-05T09:14:58.941Z,41.40
2023-05-05T09:17:26.513Z,41.39
2023-05-05T09:20:05.532Z,43.15
2023-05-05T09:22:38.029Z,43.04
2023-05-05T09:25:06.165Z,43.64
2023-05-05T09:27:40.828Z,43.62
2023-05-05T09:30:08.165Z,43.26
2023-05-05T09:32:48.029Z,43.80
2023-05-05T09:35:15.204Z,42.72
2023-05-05T09:37:41.893Z,43.85
2023-05-05T09:40:09.371Z,42.72
2023-05-05T09:42:37.159Z,43.56
2023-05-05T09:45:04.940Z,41.79
2023-05-05T09:47:35.674Z,40.86
2023-05-05T09:50:02.423Z,40.86
2023-05-05T09:52:28.980Z,40.79
2023-05-05T09:54:58.546Z,41.38
2023-05-05T09:57:26.142Z,39.63
2023-05-05T09:59:57.516Z,39.74
2023-05-05T10:02:36.466Z,38.15
2023-05-05T10:05:08.024Z,37.87
2023-05-05T10:07:36.256Z,39.90
2023-05-05T10:10:03.913Z,39.83
2023-05-05T10:12:31.261Z,41.59
2023-05-05T10:15:01.084Z,41.56
2023-05-05T10:17:28.793Z,41.39
2023-05-05T10:19:56.932Z,42.92
2023-05-05T10:22:24.045Z,44.30
2023-05-05T10:24:57.552Z,40.90
2023-05-05T10:27:24.832Z,43.72
2023-05-05T10:29:51.325Z,42.19
2023-05-05T10:34:57.676Z,42.21
2023-05-05T10:37:24.594Z,42.76
2023-05-05T10:39:52.571Z,40.76
2023-05-05T10:42:20.239Z,40.19
2023-05-05T10:44:49.028Z,39.56
2023-05-05T10:47:16.668Z,39.75
2023-05-05T10:49:53.304Z,39.06
2023-05-05T10:52:19.828Z,39.65
2023-05-05T10:55:02.476Z,40.94
2023-05-05T10:57:29.433Z,42.86
2023-05-05T10:59:55.964Z,42.01
2023-05-05T11:02:29.680Z,41.45
2023-05-05T11:05:06.926Z,43.84
2023-05-05T11:07:34.522Z,45.35
2023-05-05T11:10:01.977Z,42.79
2023-05-05T11:12:29.407Z,42.31
2023-05-05T11:15:14.567Z,45.24
2023-05-05T11:17:44.681Z,43.75
2023-05-05T11:20:11.519Z,40.63
2023-05-05T11:22:57.179Z,41.45
2023-05-05T11:25:47.181Z,40.74
2023-05-05T11:28:15.098Z,41.32
2023-05-05T11:30:57.521Z,41.49
2023-05-05T11:33:29.034Z,39.85
2023-05-05T11:35:55.999Z,40.18
2023-05-05T11:38:26.177Z,40.14
2023-05-05T11:40:56.611Z,40.21
2023-05-05T11:43:23.114Z,40.05
2023-05-05T11:45:49.617Z,40.66
2023-05-05T11:48:28.076Z,40.05
2023-05-05T11:50:54.922Z,42.26
2023-05-05T11:53:21.447Z,37.91
2023-05-05T11:55:47.980Z,41.79
2023-05-05T11:58:18.083Z,39.92
2023-05-05T12:00:44.578Z,40.57
2023-05-05T12:03:11.206Z,41.78
2023-05-05T12:05:38.174Z,44.43
2023-05-05T12:08:04.878Z,40.16
2023-05-05T12:10:31.408Z,40.17
2023-05-05T12:12:58.225Z,40.96
2023-05-05T12:15:28.526Z,40.82
2023-05-05T12:17:54.996Z,40.17
2023-05-05T12:20:32.259Z,40.77
2023-05-05T12:23:02.708Z,42.63
2023-05-05T12:25:36.853Z,39.73
2023-05-05T12:28:03.590Z,41.90
2023-05-05T12:30:30.116Z,42.97
2023-05-05T12:33:03.805Z,42.32
2023-05-05T12:35:30.852Z,42.67
2023-05-05T12:37:58.452Z,40.67
2023-05-05T12:40:44.919Z,41.37
2023-05-05T12:43:24.208Z,41.24
2023-05-05T12:46:04.513Z,41.69
2023-05-05T12:48:31.622Z,41.64
2023-05-05T12:51:10.206Z,41.97
2023-05-05T12:53:36.800Z,41.24
2023-05-05T12:56:03.449Z,42.18
2023-05-05T12:58:46.250Z,43.24
2023-05-05T13:01:12.843Z,41.05
2023-05-05T13:03:39.431Z,41.77
2023-05-05T13:06:21.562Z,41.11
2023-05-05T13:08:48.241Z,41.38
2023-05-05T13:11:14.745Z,42.88
2023-05-05T13:13:42.218Z,42.39
2023-05-05T13:16:08.829Z,41.67
2023-05-05T13:18:47.840Z,41.16
2023-05-05T13:21:14.408Z,42.44
2023-05-05T13:23:44.731Z,39.29
2023-05-05T13:26:14.478Z,39.29
2023-05-05T13:28:41.182Z,41.42
2023-05-05T13:31:07.895Z,41.19
2023-05-05T13:33:34.875Z,40.82
2023-05-05T13:36:02.062Z,41.81
2023-05-05T13:38:28.693Z,40.17
2023-05-05T13:40:55.304Z,39.86
2023-05-05T13:43:21.834Z,41.15
2023-05-05T13:45:48.354Z,42.01
2023-05-05T13:48:14.906Z,40.50
2023-05-05T13:50:41.416Z,38.20
2023-05-05T13:53:07.954Z,39.35
2023-05-05T13:55:34.453Z,38.97
2023-05-05T13:58:01.074Z,40.06
2023-05-05T14:00:27.954Z,39.81
2023-05-05T14:02:54.537Z,39.26
2023-05-05T14:05:21.259Z,38.55
2023-05-05T14:07:47.783Z,40.32
2023-05-05T14:10:14.296Z,38.49
2023-05-05T14:12:42.089Z,39.02
2023-05-05T14:15:09.113Z,41.50
2023-05-05T14:17:35.873Z,38.73
2023-05-05T14:20:02.840Z,40.06
2023-05-05T14:22:29.341Z,41.11
2023-05-05T14:24:55.891Z,39.47
2023-05-05T14:27:22.422Z,37.78
2023-05-05T14:29:48.990Z,39.11
2023-05-05T14:32:15.827Z,37.14
2023-05-05T14:34:42.362Z,36.27
2023-05-05T14:37:08.847Z,36.84
2023-05-05T14:39:35.343Z,36.94
2023-05-05T14:42:02.006Z,37.82
2023-05-05T14:44:28.539Z,37.57
2023-05-05T14:46:55.076Z,36.39
2023-05-05T14:49:21.602Z,40.22
2023-05-05T14:51:48.494Z,39.25
2023-05-05T14:54:26.931Z,38.02
2023-05-05T14:56:54.941Z,38.45
2023-05-05T14:59:21.786Z,37.65
2023-05-05T15:01:48.492Z,37.65
2023-05-05T15:04:15.152Z,36.79
2023-05-05T15:06:41.685Z,37.80
2023-05-05T15:09:08.251Z,36.96
2023-05-05T15:11:34.723Z,37.52
2023-05-05T15:14:01.444Z,37.46
2023-05-05T15:16:28.020Z,37.12
2023-05-05T15:18:55.570Z,39.83
2023-05-05T15:21:22.029Z,40.06
2023-05-05T15:23:48.496Z,38.52
2023-05-05T15:26:15.037Z,37.81
2023-05-05T15:28:41.730Z,38.06
2023-05-05T15:31:11.702Z,40.50
2023-05-05T15:33:38.781Z,40.19
2023-05-05T15:36:05.402Z,38.47
2023-05-05T15:38:31.946Z,38.50
2023-05-05T15:40:58.454Z,39.50
2023-05-05T15:43:25.022Z,39.48
2023-05-05T15:45:53.488Z,38.71
2023-05-05T15:48:19.968Z,39.57
2023-05-05T15:50:46.617Z,38.17
2023-05-05T15:53:13.088Z,38.82
2023-05-05T15:55:40.413Z,37.71
2023-05-05T15:58:06.939Z,38.73
2023-05-05T16:00:33.432Z,38.31
2023-05-05T16:03:00.172Z,41.19
2023-05-05T16:05:26.719Z,41.31
2023-05-05T16:07:53.694Z,39.14
2023-05-05T16:10:20.541Z,40.61
2023-05-05T16:12:47.356Z,41.02
2023-05-05T16:15:14.014Z,42.88
2023-05-05T16:17:40.630Z,42.56
2023-05-05T16:20:07.433Z,41.82
2023-05-05T16:22:34.535Z,42.96
2023-05-05T16:25:01.070Z,41.94
2023-05-05T16:27:27.667Z,42.14
2023-05-05T16:29:54.314Z,41.28
2023-05-05T16:32:20.900Z,41.96
2023-05-05T16:34:47.349Z,41.25
2023-05-05T16:37:13.857Z,41.08
2023-05-05T16:39:41.194Z,42.82
2023-05-05T16:42:07.859Z,42.01
2023-05-05T16:44:34.468Z,42.56
2023-05-05T16:47:01.136Z,41.73
2023-05-05T16:49:27.633Z,43.56
2023-05-05T16:51:54.182Z,42.61
2023-05-05T16:54:20.725Z,43.01
2023-05-05T16:56:47.280Z,42.93
2023-05-05T16:59:15.570Z,43.78
2023-05-05T17:01:43.443Z,43.33
2023-05-05T17:04:10.968Z,43.17
2023-05-05T17:06:37.583Z,42.84
2023-05-05T17:09:06.154Z,44.30
2023-05-05T17:11:32.743Z,44.69
2023-05-05T17:13:59.266Z,45.74
2023-05-05T17:16:26.138Z,45.19
2023-05-05T17:18:53.605Z,45.38
2023-05-05T17:21:20.106Z,45.09
2023-05-05T17:23:46.586Z,45.02
2023-05-05T17:26:13.127Z,45.71
2023-05-05T17:28:39.644Z,46.45
2023-05-05T17:31:06.262Z,46.71
2023-05-05T17:33:32.802Z,46.64
2023-05-05T17:35:59.469Z,47.14
2023-05-05T17:38:25.950Z,47.30
2023-05-05T17:40:52.390Z,47.42
2023-05-05T17:43:18.850Z,48.03
2023-05-05T17:45:46.754Z,47.90
2023-05-05T17:48:13.305Z,48.53
2023-05-05T17:50:41.333Z,48.77
2023-05-05T17:53:10.575Z,48.88
2023-05-05T17:55:37.103Z,48.71
2023-05-05T17:58:03.584Z,49.18
2023-05-05T18:00:30.163Z,49.22
2023-05-05T18:02:56.799Z,48.82
2023-05-05T18:05:23.371Z,49.20
2023-05-05T18:07:49.839Z,49.45
2023-05-05T18:10:16.679Z,49.55
2023-05-05T18:12:43.399Z,50.01
2023-05-05T18:15:10.391Z,50.35
2023-05-05T18:17:37.422Z,50.26
2023-05-05T18:20:06.679Z,50.50
2023-05-05T18:22:33.540Z,50.68
2023-05-05T18:25:00.201Z,50.75
2023-05-05T18:34:18.006Z,51.81
2023-05-05T18:36:45.427Z,52.09
2023-05-05T18:47:21.220Z,53.06
2023-05-05T18:49:47.912Z,53.39
2023-05-05T18:52:14.459Z,53.64
2023-05-05T18:54:41.024Z,53.89
2023-05-05T18:57:07.888Z,53.86
2023-05-05T18:59:34.382Z,53.98
2023-05-05T19:02:01.049Z,54.26
2023-05-05T19:04:31.330Z,54.21
2023-05-05T19:06:58.796Z,54.42
2023-05-05T19:09:25.445Z,54.44
2023-05-05T19:11:51.945Z,54.81
2023-05-05T19:14:18.402Z,54.94
2023-05-05T19:16:44.998Z,55.28
2023-05-05T19:19:11.558Z,55.41
2023-05-05T19:21:38.156Z,55.53
2023-05-05T19:24:04.764Z,55.90
2023-05-05T19:26:31.758Z,55.94
2023-05-05T19:28:58.292Z,56.13
2023-05-05T19:31:27.820Z,56.00
2023-05-05T19:33:58.962Z,56.57
2023-05-05T19:36:25.900Z,56.88
2023-05-05T19:38:52.353Z,57.22
2023-05-05T19:41:19.155Z,57.01
2023-05-05T19:43:46.394Z,57.46
2023-05-05T19:46:14.001Z,57.29
2023-05-05T19:48:40.770Z,57.70
2023-05-05T19:51:07.262Z,57.92
2023-05-05T19:53:33.783Z,58.47
2023-05-05T19:56:00.358Z,58.80
2023-05-05T19:58:26.848Z,59.46
2023-05-05T20:00:53.392Z,59.60
2023-05-05T20:03:19.953Z,60.03
2023-05-05T20:05:46.507Z,60.43
2023-05-05T20:08:12.979Z,60.85
2023-05-05T20:10:39.500Z,61.05
2023-05-05T20:13:06.145Z,61.75
2023-05-05T20:15:33.333Z,61.65
2023-05-05T20:17:59.985Z,62.24
2023-05-05T20:20:26.609Z,62.54
2023-05-05T20:22:53.280Z,62.87
2023-05-05T20:25:19.770Z,63.03
2023-05-05T20:27:46.392Z,63.28
2023-05-05T20:30:13.312Z,63.35
2023-05-05T20:32:39.980Z,63.26
2023-05-05T20:35:07.300Z,63.46
2023-05-05T20:37:33.848Z,63.49
2023-05-05T20:40:00.331Z,63.56
2023-05-05T20:42:27.806Z,62.95
2023-05-05T20:44:54.445Z,63.15
2023-05-05T20:47:21.065Z,63.27
2023-05-05T20:49:47.617Z,63.27
2023-05-05T20:52:14.120Z,63.03
2023-05-05T20:54:40.568Z,63.07
2023-05-05T20:57:07.294Z,63.41
2023-05-05T20:59:33.814Z,63.51
2023-05-05T21:02:00.464Z,63.95
2023-05-05T21:04:27.011Z,64.02
2023-05-05T21:06:53.569Z,64.11
2023-05-05T21:09:21.533Z,64.71
2023-05-05T21:11:48.824Z,64.75
2023-05-05T21:14:15.487Z,64.56
2023-05-05T21:16:42.647Z,64.58
2023-05-05T21:19:09.227Z,64.64
2023-05-05T21:21:35.961Z,64.51
2023-05-05T21:24:02.422Z,64.63
2023-05-05T21:26:29.022Z,64.54
2023-05-05T21:28:55.633Z,64.99
2023-05-05T21:31:22.799Z,64.89
2023-05-05T21:33:49.614Z,65.14
2023-05-05T21:36:17.648Z,65.30
2023-05-05T21:38:44.168Z,64.99
2023-05-05T21:41:10.679Z,65.19
2023-05-05T21:43:37.254Z,65.01
2023-05-05T21:46:04.824Z,65.52
2023-05-05T21:48:31.835Z,65.55
2023-05-05T21:50:58.398Z,65.59
2023-05-05T21:53:24.978Z,65.58
2023-05-05T21:55:51.658Z,65.37
2023-05-05T21:58:18.159Z,65.74
2023-05-05T22:00:45.061Z,65.72
2023-05-05T22:03:12.076Z,66.10
2023-05-05T22:05:38.614Z,66.14
2023-05-05T22:08:05.118Z,66.09
2023-05-05T22:10:31.711Z,66.09
2023-05-05T22:12:58.368Z,66.04
2023-05-05T22:15:29.901Z,65.77
2023-05-05T22:17:59.450Z,65.69
2023-05-05T22:20:26.048Z,64.56
2023-05-05T22:22:52.565Z,64.29
2023-05-05T22:25:19.133Z,64.63
2023-05-05T22:27:45.693Z,64.81
2023-05-05T22:30:12.492Z,64.89
2023-05-05T22:32:39.029Z,64.93
2023-05-05T22:35:05.941Z,64.77
2023-05-05T22:37:33.769Z,64.93
2023-05-05T22:40:00.322Z,65.49
2023-05-05T22:42:27.197Z,65.30
2023-05-05T22:44:53.889Z,64.71
2023-05-05T22:47:20.570Z,65.46
2023-05-05T22:49:47.287Z,65.41
2023-05-05T22:52:14.927Z,65.84
2023-05-05T22:54:41.444Z,65.78
2023-05-05T22:57:07.962Z,66.02
2023-05-05T22:59:34.469Z,66.65
2023-05-05T23:02:01.250Z,67.02
2023-05-05T23:04:27.767Z,67.34
2023-05-05T23:06:54.269Z,67.25
2023-05-05T23:09:20.912Z,67.90
2023-05-05T23:11:47.450Z,67.34
2023-05-05T23:14:14.004Z,67.39
2023-05-05T23:16:40.628Z,67.33
2023-05-05T23:19:07.196Z,67.26
2023-05-05T23:21:38.934Z,67.18
2023-05-05T23:24:12.248Z,67.14
2023-05-05T23:26:38.731Z,66.70
2023-05-05T23:29:05.674Z,66.95
2023-05-05T23:31:32.238Z,67.17
2023-05-05T23:33:58.716Z,66.91
2023-05-05T23:36:25.894Z,67.02
2023-05-05T23:38:52.350Z,67.10
2023-05-05T23:41:19.299Z,67.18
2023-05-05T23:43:45.767Z,67.09
2023-05-05T23:46:12.267Z,67.07
2023-05-05T23:48:38.850Z,67.66
2023-05-05T23:51:05.433Z,67.75
2023-05-05T23:53:31.916Z,67.81
2023-05-05T23:55:58.460Z,67.79
2023-05-05T23:58:25.138Z,68.09
